Time;durP1;ratioP1;P1;durP2;ratioP2;P2;SDS_P1;SDS_P2;PMS_P1;PMS_P2;Temp;Humidity;BMP_temperature;BMP_pressure;BME280_temperature;BME280_humidity;BME280_pressure;Samples;Min_cycle;Max_cycle;Signal;HPM_P1;HPM_P2
2022/02/28 00:00:29;;;;;;;47.63;21.52;;;3.70;99.90;;;;;;5012520;28;20034;-52
2022/02/28 00:02:58;;;;;;;52.35;22.10;;;3.60;99.90;;;;;;5011203;28;20042;-52
2022/02/28 00:05:25;;;;;;;53.00;23.48;;;3.60;99.90;;;;;;5012246;28;20422;-52
2022/02/28 00:07:51;;;;;;;50.10;22.58;;;3.60;99.90;;;;;;5010898;28;20108;-53
2022/02/28 00:10:17;;;;;;;44.08;20.80;;;3.60;99.90;;;;;;5012195;28;20046;-51
2022/02/28 00:12:44;;;;;;;44.83;22.05;;;3.60;99.90;;;;;;5010906;28;20069;-54
2022/02/28 00:15:12;;;;;;;49.50;22.63;;;3.60;99.90;;;;;;5011740;28;20038;-55
2022/02/28 00:17:38;;;;;;;53.25;22.67;;;3.50;99.90;;;;;;5010746;28;20037;-53
2022/02/28 00:20:07;;;;;;;55.63;23.98;;;3.40;99.90;;;;;;5012254;28;20451;-54
2022/02/28 00:22:33;;;;;;;55.40;23.65;;;3.40;99.90;;;;;;5010705;28;20026;-53
2022/02/28 00:25:00;;;;;;;52.67;22.92;;;3.40;99.90;;;;;;5009530;28;20463;-58
2022/02/28 00:27:26;;;;;;;54.85;23.67;;;3.50;99.90;;;;;;5010915;28;20052;-56
2022/02/28 00:29:52;;;;;;;50.30;22.67;;;3.40;99.90;;;;;;5011250;28;20547;-51
2022/02/28 00:32:21;;;;;;;53.63;23.55;;;3.40;99.90;;;;;;5011250;28;20443;-55
2022/02/28 00:34:48;;;;;;;50.00;24.05;;;3.30;99.90;;;;;;5011382;28;20030;-56
2022/02/28 00:37:13;;;;;;;53.67;23.10;;;3.30;99.90;;;;;;5010475;28;20033;-55
2022/02/28 00:39:39;;;;;;;59.95;23.92;;;3.30;99.90;;;;;;5011543;28;20447;-53
2022/02/28 00:42:05;;;;;;;54.92;23.20;;;3.20;99.90;;;;;;5010754;28;20026;-53
2022/02/28 00:44:30;;;;;;;49.40;22.65;;;3.30;99.90;;;;;;5011561;28;20472;-57
2022/02/28 00:46:56;;;;;;;48.65;24.90;;;3.20;99.90;;;;;;5010433;28;20030;-54
2022/02/28 00:49:22;;;;;;;53.22;23.90;;;3.30;99.90;;;;;;5011657;28;20472;-53
2022/02/28 00:51:47;;;;;;;50.65;23.88;;;3.20;99.90;;;;;;5011126;28;20037;-55
2022/02/28 00:54:13;;;;;;;51.15;22.50;;;3.20;99.90;;;;;;5010584;28;20083;-55
2022/02/28 00:56:39;;;;;;;51.08;22.77;;;3.30;99.90;;;;;;5010469;28;20022;-56
2022/02/28 00:59:04;;;;;;;51.03;22.80;;;3.10;99.90;;;;;;5010293;28;20436;-56
2022/02/28 01:01:30;;;;;;;56.53;23.90;;;3.20;99.90;;;;;;5011215;28;20077;-58
2022/02/28 01:03:56;;;;;;;44.38;21.05;;;3.20;99.90;;;;;;5010162;28;20046;-54
2022/02/28 01:06:22;;;;;;;54.97;25.02;;;3.20;99.90;;;;;;5010885;28;20044;-53
2022/02/28 01:08:48;;;;;;;52.90;22.23;;;3.10;99.90;;;;;;5008596;28;20029;-55
2022/02/28 01:11:13;;;;;;;51.13;22.25;;;3.00;99.90;;;;;;5011202;28;20038;-55
2022/02/28 01:13:39;;;;;;;55.38;23.73;;;2.90;99.90;;;;;;5008629;28;20042;-53
2022/02/28 01:16:05;;;;;;;49.58;23.75;;;3.00;99.90;;;;;;5010962;28;20026;-58
2022/02/28 01:18:30;;;;;;;51.88;23.50;;;2.90;99.90;;;;;;5009899;28;20037;-57
2022/02/28 01:20:56;;;;;;;46.40;21.38;;;2.90;99.90;;;;;;5011501;28;20460;-55
2022/02/28 01:23:22;;;;;;;52.97;24.40;;;2.90;99.90;;;;;;5010513;28;20030;-55
2022/02/28 01:25:47;;;;;;;48.08;22.75;;;2.90;99.90;;;;;;5009060;28;20033;-56
2022/02/28 01:28:13;;;;;;;58.33;24.33;;;2.90;99.90;;;;;;5009642;28;20521;-57
2022/02/28 01:30:39;;;;;;;56.05;23.27;;;2.80;99.90;;;;;;5009659;28;20140;-51
2022/02/28 01:33:05;;;;;;;49.60;22.77;;;2.90;99.90;;;;;;5011148;28;20029;-54
2022/02/28 01:35:31;;;;;;;51.60;23.00;;;2.90;99.90;;;;;;5008920;28;20026;-53
2022/02/28 01:37:58;;;;;;;49.97;23.08;;;2.80;99.90;;;;;;5010396;28;20076;-52
2022/02/28 01:40:25;;;;;;;57.25;24.25;;;2.80;99.90;;;;;;5025958;28;20025;-54
2022/02/28 01:42:51;;;;;;;52.55;21.50;;;2.90;99.90;;;;;;5009777;28;20125;-55
2022/02/28 01:45:22;;;;;;;47.33;23.00;;;2.90;99.90;;;;;;5010562;28;20081;-56
2022/02/28 01:47:55;;;;;;;51.28;23.15;;;2.80;99.90;;;;;;5009197;28;20607;-57
2022/02/28 01:50:22;;;;;;;50.83;21.77;;;2.90;99.90;;;;;;5010479;28;20080;-55
2022/02/28 01:52:48;;;;;;;44.00;20.92;;;2.90;99.90;;;;;;5009207;28;20041;-58
2022/02/28 01:55:15;;;;;;;52.15;23.25;;;2.80;99.90;;;;;;5008314;28;20037;-57
2022/02/28 01:57:42;;;;;;;57.45;23.20;;;2.90;99.90;;;;;;5009622;28;20109;-53
2022/02/28 02:00:11;;;;;;;47.67;21.38;;;2.90;99.90;;;;;;5008182;28;20509;-54
2022/02/28 02:02:37;;;;;;;50.00;22.85;;;2.80;99.90;;;;;;5008818;28;20026;-57
2022/02/28 02:05:03;;;;;;;57.78;23.73;;;2.80;99.90;;;;;;5007340;28;20041;-57
2022/02/28 02:07:30;;;;;;;49.95;22.75;;;2.80;99.90;;;;;;5009873;28;20108;-58
2022/02/28 02:09:58;;;;;;;50.88;22.05;;;2.80;99.90;;;;;;5008912;28;20116;-54
2022/02/28 02:12:26;;;;;;;47.72;23.70;;;2.70;99.90;;;;;;5010502;28;20542;-53
2022/02/28 02:14:53;;;;;;;57.45;23.65;;;2.80;99.90;;;;;;4991072;28;20069;-56
2022/02/28 02:17:19;;;;;;;53.10;22.17;;;2.70;99.90;;;;;;5010235;28;20033;-57
2022/02/28 02:19:46;;;;;;;49.58;24.23;;;2.70;99.90;;;;;;5008663;28;20037;-51
2022/02/28 02:22:14;;;;;;;50.83;22.80;;;2.60;99.90;;;;;;5009434;28;20037;-54
2022/02/28 02:24:40;;;;;;;49.58;22.98;;;2.70;99.90;;;;;;5001333;28;20026;-54
2022/02/28 02:27:05;;;;;;;53.85;22.60;;;2.60;99.90;;;;;;4999543;28;20149;-56
2022/02/28 02:29:36;;;;;;;55.40;22.73;;;2.60;99.90;;;;;;5037341;23;20026;-54
2022/02/28 02:32:10;;;;;;;49.58;23.67;;;2.60;99.90;;;;;;5047746;28;20036;-53
2022/02/28 02:34:35;;;;;;;50.13;22.80;;;2.70;99.90;;;;;;5049350;28;20040;-53
2022/02/28 02:37:01;;;;;;;57.28;23.35;;;2.60;99.90;;;;;;5048264;28;20508;-52
2022/02/28 02:39:27;;;;;;;53.10;23.58;;;2.60;99.90;;;;;;5049384;28;20021;-51
2022/02/28 02:41:53;;;;;;;55.38;23.98;;;2.50;99.90;;;;;;5049589;28;20075;-52
2022/02/28 02:44:19;;;;;;;52.05;23.67;;;2.60;99.90;;;;;;5048593;28;20025;-52
2022/02/28 02:46:50;;;;;;;46.28;22.10;;;2.50;99.90;;;;;;5049009;28;20036;-51
2022/02/28 02:49:16;;;;;;;60.22;24.42;;;2.50;99.90;;;;;;5049238;28;20029;-51
2022/02/28 02:51:42;;;;;;;47.67;22.52;;;2.50;99.90;;;;;;5049075;28;20047;-53
2022/02/28 02:54:09;;;;;;;44.28;22.00;;;2.50;99.90;;;;;;5048859;28;20021;-51
2022/02/28 02:56:36;;;;;;;53.08;24.20;;;2.50;99.90;;;;;;5048487;28;20079;-51
2022/02/28 02:59:03;;;;;;;51.30;23.42;;;2.50;99.90;;;;;;5048705;28;20447;-54
2022/02/28 03:01:29;;;;;;;54.97;23.73;;;2.50;99.90;;;;;;5041109;28;20430;-56
2022/02/28 03:03:54;;;;;;;54.95;22.75;;;2.50;99.90;;;;;;5047943;28;20064;-51
2022/02/28 03:06:20;;;;;;;50.42;22.58;;;2.50;99.90;;;;;;5049354;28;20077;-53
2022/02/28 03:08:45;;;;;;;51.20;23.63;;;2.40;99.90;;;;;;5047680;28;20079;-50
2022/02/28 03:11:11;;;;;;;53.22;23.38;;;2.50;99.90;;;;;;5049613;28;20555;-51
2022/02/28 03:13:37;;;;;;;46.70;22.25;;;2.40;99.90;;;;;;5047271;28;20036;-52
2022/02/28 03:16:03;;;;;;;52.38;23.30;;;2.40;99.90;;;;;;5049266;28;20033;-50
2022/02/28 03:18:29;;;;;;;53.28;24.20;;;2.40;99.90;;;;;;5050958;28;20055;-54
2022/02/28 03:20:54;;;;;;;57.67;24.30;;;2.40;99.90;;;;;;5053127;28;20029;-53
2022/02/28 03:23:20;;;;;;;56.20;23.80;;;2.40;99.90;;;;;;5052346;28;20425;-50
2022/02/28 03:25:45;;;;;;;50.20;22.90;;;2.40;99.90;;;;;;5043129;28;20322;-50
2022/02/28 03:28:11;;;;;;;52.40;22.95;;;2.30;99.90;;;;;;5046529;28;20151;-50
2022/02/28 03:30:37;;;;;;;53.00;23.88;;;2.30;99.90;;;;;;5052465;28;20037;-50
2022/02/28 03:33:02;;;;;;;51.50;23.42;;;2.30;99.90;;;;;;5052027;28;20029;-51
2022/02/28 03:35:28;;;;;;;46.42;21.55;;;2.30;99.90;;;;;;5052383;28;20071;-51
2022/02/28 03:37:54;;;;;;;56.70;24.60;;;2.20;99.90;;;;;;5052580;28;20025;-51
2022/02/28 03:40:19;;;;;;;49.47;22.48;;;2.20;99.90;;;;;;5053268;28;20497;-52
2022/02/28 03:42:45;;;;;;;53.22;23.05;;;2.20;99.90;;;;;;5051502;28;20124;-51
2022/02/28 03:45:11;;;;;;;54.85;23.45;;;2.20;99.90;;;;;;5052841;28;20028;-52
2022/02/28 03:47:37;;;;;;;53.35;24.20;;;2.20;99.90;;;;;;5052113;28;20040;-53
2022/02/28 03:50:03;;;;;;;52.45;24.10;;;2.10;99.90;;;;;;5052956;28;20135;-50
2022/02/28 03:52:29;;;;;;;54.05;23.25;;;2.10;99.90;;;;;;5051293;28;20029;-54
2022/02/28 03:54:54;;;;;;;55.53;24.95;;;2.10;99.90;;;;;;5051291;28;20047;-53
2022/02/28 03:57:20;;;;;;;50.33;23.10;;;2.10;99.90;;;;;;5053771;28;20083;-51
2022/02/28 03:59:46;;;;;;;50.35;23.00;;;2.10;99.90;;;;;;5052656;28;20029;-51
2022/02/28 04:02:12;;;;;;;55.80;24.67;;;2.10;99.90;;;;;;5054777;28;20021;-50
2022/02/28 04:04:38;;;;;;;49.90;23.20;;;2.10;99.90;;;;;;5053775;28;20084;-52
2022/02/28 04:07:04;;;;;;;50.35;23.02;;;2.10;99.90;;;;;;5051961;28;20064;-52
2022/02/28 04:09:29;;;;;;;57.47;23.35;;;2.10;99.90;;;;;;5052569;28;20033;-53
2022/02/28 04:11:55;;;;;;;58.67;24.15;;;2.00;99.90;;;;;;5051657;28;20044;-52
2022/02/28 04:14:21;;;;;;;57.65;25.27;;;2.00;99.90;;;;;;5052482;28;20359;-51
2022/02/28 04:16:46;;;;;;;55.60;25.70;;;1.90;99.90;;;;;;5050027;28;20039;-50
2022/02/28 04:19:12;;;;;;;49.85;22.50;;;1.90;99.90;;;;;;5053396;28;20095;-53
2022/02/28 04:21:37;;;;;;;55.53;25.23;;;1.80;99.90;;;;;;5052249;28;20025;-53
2022/02/28 04:24:03;;;;;;;59.15;25.38;;;1.80;99.90;;;;;;5067892;28;20405;-52
2022/02/28 04:26:29;;;;;;;54.92;25.33;;;1.70;99.90;;;;;;5050130;28;20033;-53
2022/02/28 04:28:55;;;;;;;57.15;24.58;;;1.70;99.90;;;;;;5051663;28;20029;-54
2022/02/28 04:31:20;;;;;;;59.58;26.58;;;1.70;99.90;;;;;;5050669;28;20431;-53
2022/02/28 04:33:46;;;;;;;60.20;25.45;;;1.60;99.90;;;;;;5051573;28;20040;-53
2022/02/28 04:36:12;;;;;;;56.67;26.05;;;1.60;99.90;;;;;;5050101;28;20071;-53
2022/02/28 04:38:38;;;;;;;57.45;24.50;;;1.60;99.90;;;;;;5051763;28;20155;-55
2022/02/28 04:41:04;;;;;;;65.30;25.77;;;1.60;99.90;;;;;;5051056;28;20100;-53
2022/02/28 04:43:29;;;;;;;61.75;27.50;;;1.60;99.90;;;;;;5067253;28;20033;-54
2022/02/28 04:45:55;;;;;;;58.25;23.58;;;1.60;99.90;;;;;;5049574;28;20033;-55
2022/02/28 04:48:21;;;;;;;64.78;26.67;;;1.60;99.90;;;;;;5052221;28;20535;-53
2022/02/28 04:50:47;;;;;;;60.65;26.42;;;1.50;99.90;;;;;;5050008;28;20076;-53
2022/02/28 04:53:12;;;;;;;60.83;25.98;;;1.50;99.90;;;;;;5051816;28;20032;-52
2022/02/28 04:55:38;;;;;;;59.03;25.92;;;1.60;99.90;;;;;;5049539;28;20390;-54
2022/02/28 04:58:03;;;;;;;58.40;27.05;;;1.50;99.90;;;;;;5051809;28;20025;-54
2022/02/28 05:00:29;;;;;;;60.22;25.88;;;1.50;99.90;;;;;;5050648;28;20021;-55
2022/02/28 05:02:55;;;;;;;68.72;27.73;;;1.50;99.90;;;;;;5050734;28;20111;-53
2022/02/28 05:05:21;;;;;;;61.88;24.10;;;1.50;99.90;;;;;;5049663;28;20363;-54
2022/02/28 05:07:47;;;;;;;63.95;27.27;;;1.40;99.90;;;;;;5050922;28;20029;-55
2022/02/28 05:10:13;;;;;;;65.53;26.13;;;1.40;99.90;;;;;;5050300;28;20056;-53
2022/02/28 05:12:38;;;;;;;66.82;26.42;;;1.40;99.90;;;;;;5050296;28;20044;-53
2022/02/28 05:15:04;;;;;;;62.00;27.42;;;1.40;99.90;;;;;;5049460;28;20032;-54
2022/02/28 05:17:30;;;;;;;57.75;26.50;;;1.40;99.90;;;;;;5050677;28;20116;-54
2022/02/28 05:19:55;;;;;;;61.35;26.80;;;1.40;99.90;;;;;;5050272;28;20089;-53
2022/02/28 05:22:21;;;;;;;62.33;28.52;;;1.40;99.90;;;;;;5050933;28;20025;-53
2022/02/28 05:24:47;;;;;;;67.47;29.05;;;1.40;99.90;;;;;;5049019;28;20120;-53
2022/02/28 05:27:12;;;;;;;75.05;30.95;;;1.40;99.90;;;;;;5045960;28;20067;-53
2022/02/28 05:29:39;;;;;;;59.47;27.25;;;1.40;99.90;;;;;;5050060;28;20419;-53
2022/02/28 05:32:05;;;;;;;68.82;28.65;;;1.40;99.90;;;;;;5050931;28;20452;-53
2022/02/28 05:34:31;;;;;;;60.38;26.73;;;1.40;99.90;;;;;;5053101;28;20356;-54
2022/02/28 05:36:56;;;;;;;60.80;28.42;;;1.40;99.90;;;;;;5046557;28;20037;-53
2022/02/28 05:39:22;;;;;;;62.35;27.88;;;1.30;99.90;;;;;;5047835;28;20021;-53
2022/02/28 05:41:48;;;;;;;67.15;27.88;;;1.30;99.90;;;;;;5049270;28;20037;-54
2022/02/28 05:44:13;;;;;;;68.35;29.17;;;1.30;99.90;;;;;;5050688;28;20033;-54
2022/02/28 05:46:39;;;;;;;67.50;29.83;;;1.30;99.90;;;;;;5048976;28;20037;-54
2022/02/28 05:49:05;;;;;;;71.85;30.13;;;1.20;99.90;;;;;;5050559;28;20037;-54
2022/02/28 05:51:31;;;;;;;61.40;27.95;;;1.30;99.90;;;;;;5049477;28;20593;-54
2022/02/28 05:53:57;;;;;;;65.80;28.83;;;1.20;99.90;;;;;;5049970;28;20045;-53
2022/02/28 05:56:23;;;;;;;71.10;29.23;;;1.20;99.90;;;;;;5048177;28;20021;-53
2022/02/28 05:58:49;;;;;;;71.25;30.17;;;1.20;99.90;;;;;;5049880;28;20078;-54
2022/02/28 06:01:15;;;;;;;67.88;28.77;;;1.20;99.90;;;;;;5063817;28;20124;-54
2022/02/28 06:03:40;;;;;;;73.40;29.65;;;1.20;99.90;;;;;;5048867;28;20481;-53
2022/02/28 06:06:06;;;;;;;66.97;29.80;;;1.10;99.90;;;;;;5049523;28;20529;-54
2022/02/28 06:08:32;;;;;;;69.82;28.70;;;1.10;99.90;;;;;;5065453;28;20485;-53
2022/02/28 06:10:57;;;;;;;74.53;31.58;;;1.20;99.90;;;;;;5049943;28;20051;-50
2022/02/28 06:13:23;;;;;;;70.75;30.65;;;1.10;99.90;;;;;;5046010;28;20032;-52
2022/02/28 06:15:49;;;;;;;79.25;31.25;;;1.00;99.90;;;;;;5049475;28;20390;-51
2022/02/28 06:18:14;;;;;;;67.20;30.23;;;1.00;99.90;;;;;;5049558;28;20531;-51
2022/02/28 06:20:41;;;;;;;69.68;30.85;;;0.90;99.90;;;;;;5048445;28;20051;-52
2022/02/28 06:23:09;;;;;;;69.45;30.30;;;0.90;99.90;;;;;;5048932;28;20124;-54
2022/02/28 06:25:36;;;;;;;75.60;31.17;;;0.90;99.90;;;;;;5050066;28;20531;-51
2022/02/28 06:28:02;;;;;;;72.88;29.85;;;1.00;99.90;;;;;;5060522;28;20471;-53
2022/02/28 06:30:28;;;;;;;81.63;31.42;;;0.90;99.90;;;;;;5031817;28;20048;-52
2022/02/28 06:32:53;;;;;;;74.68;30.88;;;0.90;99.90;;;;;;5029771;28;20037;-52
2022/02/28 06:35:19;;;;;;;78.25;32.15;;;0.90;99.90;;;;;;5046768;28;20071;-55
2022/02/28 06:37:44;;;;;;;77.47;31.67;;;0.90;99.90;;;;;;5048278;28;20025;-53
2022/02/28 06:40:11;;;;;;;74.28;31.33;;;0.90;99.90;;;;;;5048012;28;20040;-51
2022/02/28 06:42:36;;;;;;;82.25;33.33;;;0.80;99.90;;;;;;5049378;28;20021;-51
2022/02/28 06:45:03;;;;;;;72.53;32.17;;;0.90;99.90;;;;;;5048695;28;20037;-51
2022/02/28 06:47:29;;;;;;;81.63;33.28;;;0.80;99.90;;;;;;5049628;28;20509;-53
2022/02/28 06:49:55;;;;;;;82.90;33.75;;;0.80;99.90;;;;;;5044551;28;20041;-53
2022/02/28 06:52:20;;;;;;;79.55;32.97;;;0.90;99.90;;;;;;5044518;28;20128;-51
2022/02/28 06:54:46;;;;;;;86.90;35.17;;;0.80;99.90;;;;;;5049136;28;20029;-54
2022/02/28 06:57:12;;;;;;;85.22;34.22;;;0.90;99.90;;;;;;5045991;28;20111;-49
2022/02/28 06:59:38;;;;;;;79.90;32.08;;;0.90;99.90;;;;;;5045535;28;20033;-52
2022/02/28 07:02:04;;;;;;;85.03;35.88;;;0.70;99.90;;;;;;5047359;28;20097;-54
2022/02/28 07:04:29;;;;;;;87.18;35.70;;;0.80;99.90;;;;;;5046708;28;20568;-53
2022/02/28 07:06:55;;;;;;;87.22;36.08;;;0.70;99.90;;;;;;5038076;28;20062;-54
2022/02/28 07:09:21;;;;;;;85.15;35.47;;;0.60;99.90;;;;;;5034189;28;20032;-54
2022/02/28 07:11:46;;;;;;;88.13;35.63;;;0.60;99.90;;;;;;5047870;28;20506;-56
2022/02/28 07:14:12;;;;;;;94.65;37.40;;;0.70;99.90;;;;;;5048244;28;20067;-55
2022/02/28 07:16:38;;;;;;;91.50;37.70;;;0.70;99.90;;;;;;5045649;28;20483;-56
2022/02/28 07:19:04;;;;;;;87.03;35.90;;;0.80;99.90;;;;;;5048039;28;20106;-56
2022/02/28 07:21:30;;;;;;;99.43;38.17;;;0.70;99.90;;;;;;5046454;28;20109;-58
2022/02/28 07:23:58;;;;;;;96.60;38.22;;;0.70;99.90;;;;;;5048515;28;20029;-55
2022/02/28 07:26:25;;;;;;;88.13;36.67;;;0.60;99.90;;;;;;5061603;28;20033;-56
2022/02/28 07:28:51;;;;;;;97.32;37.42;;;0.70;99.90;;;;;;5045841;28;20056;-56
2022/02/28 07:31:18;;;;;;;98.82;38.40;;;0.60;99.90;;;;;;5043748;28;20048;-57
2022/02/28 07:33:43;;;;;;;97.15;36.83;;;0.70;99.90;;;;;;5044687;28;20108;-56
2022/02/28 07:36:09;;;;;;;83.38;32.10;;;0.50;99.90;;;;;;5045667;28;20105;-58
2022/02/28 07:38:36;;;;;;;87.63;37.35;;;0.50;99.90;;;;;;5046785;28;20021;-55
2022/02/28 07:41:02;;;;;;;95.80;38.30;;;0.60;99.90;;;;;;5029505;28;20041;-55
2022/02/28 07:43:28;;;;;;;91.13;35.95;;;0.70;99.90;;;;;;5047941;28;20025;-55
2022/02/28 07:45:53;;;;;;;103.65;40.65;;;0.80;99.90;;;;;;5046423;28;20032;-54
2022/02/28 07:48:19;;;;;;;102.55;39.83;;;0.70;99.90;;;;;;5046462;28;20040;-54
2022/02/28 07:50:45;;;;;;;95.43;38.10;;;0.70;99.90;;;;;;5047502;28;20033;-56
2022/02/28 07:53:10;;;;;;;94.18;37.47;;;0.70;99.90;;;;;;5048365;28;20082;-56
2022/02/28 07:55:36;;;;;;;96.18;37.55;;;0.70;99.90;;;;;;5046307;28;20493;-55
2022/02/28 07:58:01;;;;;;;94.53;37.75;;;0.80;99.90;;;;;;5048801;28;20036;-55
2022/02/28 08:00:27;;;;;;;94.60;38.33;;;0.70;99.90;;;;;;5051296;28;20439;-52
2022/02/28 08:02:53;;;;;;;94.20;38.50;;;0.80;99.90;;;;;;5053357;28;20491;-52
2022/02/28 08:05:18;;;;;;;95.07;37.00;;;0.90;99.90;;;;;;5047794;28;20071;-53
2022/02/28 08:07:44;;;;;;;93.78;38.95;;;0.80;99.90;;;;;;5040155;28;20494;-51
2022/02/28 08:10:10;;;;;;;97.57;38.17;;;0.90;99.90;;;;;;5049468;28;20486;-51
2022/02/28 08:12:35;;;;;;;97.88;39.45;;;1.00;99.90;;;;;;5043529;28;20061;-51
2022/02/28 08:15:02;;;;;;;89.20;35.63;;;1.00;99.90;;;;;;5049721;28;20021;-50
2022/02/28 08:17:27;;;;;;;88.68;36.40;;;1.00;99.90;;;;;;5051517;28;20024;-57
2022/02/28 08:19:53;;;;;;;88.13;33.92;;;1.10;99.90;;;;;;5046237;28;20505;-57
2022/02/28 08:22:18;;;;;;;95.47;38.00;;;1.10;99.90;;;;;;5058803;28;20055;-56
2022/02/28 08:24:44;;;;;;;94.82;37.97;;;1.20;99.90;;;;;;5051112;28;20126;-57
2022/02/28 08:27:10;;;;;;;87.80;37.13;;;1.10;99.90;;;;;;5051240;28;20044;-57
2022/02/28 08:29:35;;;;;;;96.78;39.00;;;1.20;99.90;;;;;;5048008;28;20107;-56
2022/02/28 08:32:01;;;;;;;92.30;37.80;;;1.20;99.90;;;;;;5045503;28;20036;-54
2022/02/28 08:34:26;;;;;;;91.57;38.50;;;1.20;99.90;;;;;;5049436;28;20048;-54
2022/02/28 08:36:52;;;;;;;94.35;39.30;;;1.30;99.90;;;;;;5054718;28;20043;-54
2022/02/28 08:39:18;;;;;;;97.20;38.13;;;1.30;99.90;;;;;;5064841;28;20086;-54
2022/02/28 08:41:43;;;;;;;89.43;37.28;;;1.40;99.90;;;;;;5040887;28;20034;-54
2022/02/28 08:44:09;;;;;;;90.82;39.15;;;1.40;99.90;;;;;;5033968;28;20071;-55
2022/02/28 08:46:36;;;;;;;92.68;38.10;;;1.40;99.90;;;;;;5050306;28;20060;-55
2022/02/28 08:49:03;;;;;;;92.97;38.58;;;1.50;99.90;;;;;;5056788;28;20092;-57
2022/02/28 08:51:29;;;;;;;94.22;38.85;;;1.40;99.90;;;;;;5051333;28;20479;-54
2022/02/28 08:53:54;;;;;;;96.78;38.97;;;1.40;99.90;;;;;;5051090;28;20064;-54
2022/02/28 08:56:20;;;;;;;92.82;37.90;;;1.50;99.90;;;;;;5049542;28;20027;-55
2022/02/28 08:58:46;;;;;;;95.20;39.92;;;1.40;99.90;;;;;;5062583;28;20032;-54
2022/02/28 09:01:12;;;;;;;88.68;36.83;;;1.50;99.90;;;;;;5071331;28;20120;-55
2022/02/28 09:03:38;;;;;;;93.28;37.45;;;1.60;99.90;;;;;;5070856;28;20110;-54
2022/02/28 09:06:04;;;;;;;100.05;40.40;;;1.70;99.90;;;;;;5052044;28;20036;-56
2022/02/28 09:08:29;;;;;;;97.45;39.15;;;1.60;99.90;;;;;;5066620;28;20043;-55
2022/02/28 09:10:55;;;;;;;99.30;40.22;;;1.70;99.90;;;;;;5070423;28;20474;-56
2022/02/28 09:13:21;;;;;;;94.00;39.03;;;1.70;99.90;;;;;;5071424;28;20185;-56
2022/02/28 09:15:46;;;;;;;97.38;39.22;;;1.80;99.90;;;;;;5045797;28;20298;-55
2022/02/28 09:18:12;;;;;;;94.90;38.70;;;1.90;99.90;;;;;;5059185;28;20025;-58
2022/02/28 09:20:38;;;;;;;88.25;37.47;;;1.90;99.90;;;;;;5065513;28;20029;-57
2022/02/28 09:23:05;;;;;;;95.82;39.47;;;2.00;99.90;;;;;;5055998;28;20036;-56
2022/02/28 09:25:31;;;;;;;94.18;38.67;;;2.00;99.90;;;;;;5043702;28;20060;-55
2022/02/28 09:27:56;;;;;;;92.28;37.92;;;2.10;99.90;;;;;;5061200;28;20417;-56
2022/02/28 09:30:22;;;;;;;102.28;39.95;;;2.20;99.90;;;;;;5070679;28;20040;-57
2022/02/28 09:32:48;;;;;;;92.60;37.55;;;2.30;99.90;;;;;;5070362;28;20393;-56
2022/02/28 09:35:14;;;;;;;95.97;40.97;;;2.40;99.90;;;;;;5062545;28;20354;-57
2022/02/28 09:37:40;;;;;;;92.07;37.78;;;2.50;99.90;;;;;;5057629;28;20020;-58
2022/02/28 09:40:07;;;;;;;93.00;39.05;;;2.60;99.90;;;;;;5054307;28;20036;-56
2022/02/28 09:42:34;;;;;;;102.47;40.42;;;2.70;99.90;;;;;;5049858;28;20040;-59
2022/02/28 09:45:00;;;;;;;93.03;38.28;;;2.80;99.90;;;;;;5059062;28;20020;-58
2022/02/28 09:47:27;;;;;;;88.28;37.90;;;2.90;99.90;;;;;;5070677;28;20028;-57
2022/02/28 09:49:53;;;;;;;93.63;38.15;;;3.00;99.90;;;;;;5069329;28;20098;-55
2022/02/28 09:52:19;;;;;;;88.90;38.22;;;3.10;99.90;;;;;;5070738;28;20397;-55
2022/02/28 09:54:45;;;;;;;86.70;37.30;;;3.20;99.90;;;;;;5069805;28;20040;-56
2022/02/28 09:57:11;;;;;;;96.82;37.95;;;3.20;99.90;;;;;;5058163;28;20081;-57
2022/02/28 09:59:37;;;;;;;86.30;36.28;;;3.40;99.90;;;;;;5041421;28;20547;-58
2022/02/28 10:02:04;;;;;;;88.50;37.47;;;3.40;99.90;;;;;;5049132;28;20029;-57
2022/02/28 10:04:30;;;;;;;83.90;35.72;;;3.50;99.90;;;;;;5042204;28;20442;-58
2022/02/28 10:06:56;;;;;;;80.82;36.55;;;3.60;99.90;;;;;;5052568;28;20025;-54
2022/02/28 10:09:22;;;;;;;86.53;36.47;;;3.80;99.90;;;;;;5055466;28;20375;-57
2022/02/28 10:11:50;;;;;;;79.35;34.45;;;3.90;99.90;;;;;;5049260;28;20572;-55
2022/02/28 10:14:16;;;;;;;83.72;35.25;;;4.00;99.90;;;;;;5049904;28;20035;-56
2022/02/28 10:16:50;;;;;;;79.85;32.58;;;4.10;99.90;;;;;;5056148;28;20032;-56
2022/02/28 10:19:23;;;;;;;78.18;34.70;;;4.30;99.90;;;;;;5053265;28;20032;-58
2022/02/28 10:21:49;;;;;;;80.95;33.13;;;4.50;99.90;;;;;;5049357;28;20037;-57
2022/02/28 10:24:30;;;;;;;78.85;34.97;;;4.60;99.90;;;;;;5054103;28;20430;-55
2022/02/28 10:26:59;;;;;;;81.45;35.20;;;4.70;99.90;;;;;;5049888;28;20481;-57
2022/02/28 10:29:27;;;;;;;80.40;33.45;;;4.70;99.90;;;;;;5064038;28;20119;-57
2022/02/28 10:31:59;;;;;;;77.53;35.53;;;4.70;99.90;;;;;;5029585;28;20525;-57
2022/02/28 10:34:26;;;;;;;72.57;31.67;;;4.70;99.90;;;;;;5030450;28;20030;-57
2022/02/28 10:36:58;;;;;;;74.55;32.90;;;4.90;99.90;;;;;;5027038;28;20039;-55
2022/02/28 10:39:35;;;;;;;79.93;32.25;;;5.00;99.90;;;;;;5029979;28;20380;-58
2022/02/28 10:42:08;;;;;;;79.45;32.50;;;5.10;99.90;;;;;;5032785;28;20383;-59
2022/02/28 10:44:34;;;;;;;74.97;33.67;;;5.30;99.90;;;;;;5048685;28;20063;-58
2022/02/28 10:47:09;;;;;;;72.63;31.88;;;5.50;99.90;;;;;;5057650;28;20111;-55
2022/02/28 10:49:36;;;;;;;65.90;31.55;;;5.80;99.90;;;;;;5055616;28;20467;-58
2022/02/28 10:52:05;;;;;;;70.00;30.73;;;5.90;99.90;;;;;;5054802;28;20032;-59
2022/02/28 10:54:31;;;;;;;69.25;31.92;;;6.00;99.90;;;;;;5048805;28;20505;-61
2022/02/28 10:57:00;;;;;;;66.18;32.05;;;5.90;99.90;;;;;;5048706;28;20037;-56
2022/02/28 10:59:45;;;;;;;64.88;32.15;;;6.20;99.90;;;;;;5046989;28;20052;-57
2022/02/28 11:02:28;;;;;;;56.75;26.60;;;6.40;99.90;;;;;;5047591;28;20029;-59
2022/02/28 11:05:07;;;;;;;56.10;28.35;;;6.50;99.90;;;;;;5041736;28;20579;-57
2022/02/28 11:07:43;;;;;;;56.42;27.60;;;6.40;99.90;;;;;;5044831;28;20064;-58
2022/02/28 11:10:11;;;;;;;51.40;25.50;;;6.60;99.90;;;;;;5049251;28;20093;-58
2022/02/28 11:12:38;;;;;;;52.63;26.75;;;6.80;99.90;;;;;;5048975;28;20045;-56
2022/02/28 11:15:09;;;;;;;55.78;26.40;;;6.70;99.90;;;;;;5048745;28;20570;-58
2022/02/28 11:17:39;;;;;;;47.65;24.13;;;6.90;99.90;;;;;;5048867;28;20702;-57
2022/02/28 11:20:11;;;;;;;52.83;25.23;;;7.10;99.90;;;;;;5048844;28;20070;-59
2022/02/28 11:22:41;;;;;;;53.00;25.92;;;7.00;99.90;;;;;;5048649;28;20171;-57
2022/02/28 11:25:11;;;;;;;52.88;24.38;;;7.10;99.90;;;;;;5068242;28;20036;-56
2022/02/28 11:27:39;;;;;;;49.67;25.17;;;6.90;99.90;;;;;;5067642;28;20029;-59
2022/02/28 11:30:15;;;;;;;61.47;26.58;;;6.80;99.90;;;;;;5060313;28;20044;-60
2022/02/28 11:32:41;;;;;;;46.03;24.60;;;6.90;99.90;;;;;;5045320;28;20037;-59
2022/02/28 11:35:40;;;;;;;47.20;24.58;;;7.30;99.90;;;;;;5044968;28;20035;-58
2022/02/28 11:38:16;;;;;;;53.97;23.77;;;7.30;99.90;;;;;;5046677;28;20021;-54
2022/02/28 11:40:44;;;;;;;48.15;23.75;;;7.40;99.90;;;;;;5052594;28;20025;-55
2022/02/28 11:43:12;;;;;;;41.45;23.38;;;7.50;99.90;;;;;;5049806;28;20020;-53
2022/02/28 11:45:48;;;;;;;48.17;23.00;;;7.30;99.90;;;;;;5040468;28;20479;-57
2022/02/28 11:48:34;;;;;;;43.00;20.88;;;7.40;99.90;;;;;;5041744;28;20028;-58
2022/02/28 11:51:09;;;;;;;48.00;23.45;;;7.30;99.90;;;;;;5032921;28;20033;-56
2022/02/28 11:53:37;;;;;;;45.42;22.45;;;7.30;99.90;;;;;;5031234;28;20036;-58
2022/02/28 11:56:23;;;;;;;42.78;21.90;;;7.60;99.90;;;;;;5035523;28;20037;-58
2022/02/28 11:58:58;;;;;;;46.50;21.42;;;8.10;99.90;;;;;;5045991;28;20029;-59
2022/02/28 12:01:38;;;;;;;40.85;20.70;;;8.40;99.90;;;;;;5043639;28;20079;-58
2022/02/28 12:04:07;;;;;;;41.25;22.00;;;8.50;99.90;;;;;;5041970;28;20033;-57
2022/02/28 12:07:05;;;;;;;38.72;20.45;;;8.90;99.90;;;;;;5044477;28;20043;-57
2022/02/28 12:09:33;;;;;;;40.80;21.05;;;9.40;99.90;;;;;;5062923;28;20064;-61
2022/02/28 12:12:29;;;;;;;37.22;20.15;;;9.50;99.90;;;;;;5051985;28;20112;-58
2022/02/28 12:14:57;;;;;;;34.72;19.73;;;10.50;99.90;;;;;;5050050;28;20040;-62
2022/02/28 12:17:42;;;;;;;33.55;18.55;;;10.90;99.90;;;;;;5051993;28;20489;-62
2022/02/28 12:20:32;;;;;;;34.20;19.20;;;10.90;99.90;;;;;;5047689;28;20136;-61
2022/02/28 12:25:41;;;;;;;32.35;18.50;;;11.60;99.90;;;;;;5036805;28;20026;-61
2022/02/28 12:28:25;;;;;;;31.83;18.20;;;11.30;99.90;;;;;;5031280;28;20475;-61
2022/02/28 12:30:59;;;;;;;33.67;19.20;;;11.00;99.90;;;;;;5030672;28;20029;-61
2022/02/28 12:33:34;;;;;;;32.88;19.95;;;11.00;99.90;;;;;;5031872;28;20022;-62
2022/02/28 12:36:09;;;;;;;32.17;17.95;;;11.40;99.90;;;;;;5044366;28;20094;-62
2022/02/28 12:38:37;;;;;;;33.97;18.90;;;11.40;99.90;;;;;;5044888;28;20075;-61